createdAt,value
2023-05-14T00:01:08.537Z,58.73
2023-05-14T00:03:56.819Z,58.72
2023-05-14T00:06:47.234Z,59.97
2023-05-14T00:09:36.205Z,60.05
2023-05-14T00:12:24.967Z,59.46
2023-05-14T00:15:13.307Z,60.16
2023-05-14T00:18:01.098Z,60.37
2023-05-14T00:20:49.456Z,59.57
2023-05-14T00:23:37.630Z,60.44
2023-05-14T00:26:25.777Z,59.38
2023-05-14T00:29:13.874Z,60.50
2023-05-14T00:32:01.757Z,61.05
2023-05-14T00:34:50.875Z,61.21
2023-05-14T00:37:40.475Z,61.42
2023-05-14T00:40:29.934Z,64.46
2023-05-14T00:43:20.784Z,68.91
2023-05-14T00:46:09.175Z,65.75
2023-05-14T00:49:00.001Z,62.04
2023-05-14T00:51:48.477Z,57.47
2023-05-14T00:54:37.095Z,55.35
2023-05-14T00:57:25.144Z,55.91
2023-05-14T01:00:15.187Z,56.31
2023-05-14T01:03:05.396Z,57.10
2023-05-14T01:06:26.669Z,58.28
2023-05-14T01:09:35.302Z,58.48
2023-05-14T01:12:38.631Z,59.29
2023-05-14T01:15:34.804Z,59.98
2023-05-14T01:18:24.526Z,60.83
2023-05-14T01:21:43.109Z,60.94
2023-05-14T01:24:31.185Z,61.10
2023-05-14T01:28:13.663Z,63.70
2023-05-14T01:31:14.562Z,69.21
2023-05-14T01:34:05.752Z,66.36
2023-05-14T01:36:58.972Z,62.49
2023-05-14T01:39:47.801Z,58.19
2023-05-14T01:42:36.973Z,55.13
2023-05-14T01:45:25.218Z,55.64
2023-05-14T01:48:13.314Z,56.48
2023-05-14T01:51:03.217Z,56.55
2023-05-14T01:53:51.446Z,58.36
2023-05-14T01:56:39.429Z,59.17
2023-05-14T01:59:29.952Z,59.60
2023-05-14T02:02:18.291Z,60.41
2023-05-14T02:05:09.600Z,60.99
2023-05-14T02:07:58.312Z,61.35
2023-05-14T02:10:46.866Z,65.72
2023-05-14T02:13:35.004Z,69.08
2023-05-14T02:16:23.054Z,66.66
2023-05-14T02:19:14.735Z,62.03
2023-05-14T02:22:04.002Z,57.69
2023-05-14T02:24:52.476Z,56.31
2023-05-14T02:27:40.844Z,57.34
2023-05-14T02:30:30.203Z,58.56
2023-05-14T02:33:19.065Z,59.56
2023-05-14T02:36:08.792Z,60.13
2023-05-14T02:39:01.241Z,60.80
2023-05-14T02:41:49.001Z,64.97
2023-05-14T02:44:38.297Z,67.83
2023-05-14T02:47:26.222Z,64.43
2023-05-14T02:50:14.602Z,61.31
2023-05-14T02:53:02.602Z,57.37
2023-05-14T02:55:50.834Z,56.21
2023-05-14T02:58:39.465Z,57.62
2023-05-14T03:01:27.513Z,58.55
2023-05-14T03:04:16.369Z,59.93
2023-05-14T03:07:04.678Z,61.26
2023-05-14T03:09:52.469Z,61.61
2023-05-14T03:12:41.888Z,65.78
2023-05-14T03:15:29.860Z,68.09
2023-05-14T03:18:17.952Z,65.19
2023-05-14T03:21:09.277Z,62.29
2023-05-14T03:23:57.498Z,59.89
2023-05-14T03:26:45.584Z,56.04
2023-05-14T03:29:33.826Z,56.13
2023-05-14T03:32:22.112Z,57.61
2023-05-14T03:35:11.337Z,58.76
2023-05-14T03:38:00.033Z,59.69
2023-05-14T03:40:51.426Z,60.46
2023-05-14T03:43:40.159Z,61.57
2023-05-14T03:46:29.455Z,64.95
2023-05-14T03:49:18.064Z,66.95
2023-05-14T03:52:06.701Z,63.44
2023-05-14T03:54:55.996Z,60.00
2023-05-14T03:57:46.235Z,55.25
2023-05-14T04:00:34.766Z,55.13
2023-05-14T04:03:22.955Z,56.26
2023-05-14T04:06:11.480Z,57.23
2023-05-14T04:08:59.955Z,58.26
2023-05-14T04:11:48.556Z,58.73
2023-05-14T04:14:38.781Z,59.17
2023-05-14T04:17:27.761Z,59.83
2023-05-14T04:20:15.942Z,60.55
2023-05-14T04:23:05.887Z,61.06
2023-05-14T04:25:53.825Z,61.34
2023-05-14T04:28:41.900Z,64.60
2023-05-14T04:31:31.831Z,66.67
2023-05-14T04:34:20.605Z,62.75
2023-05-14T04:37:09.114Z,56.87
2023-05-14T04:39:57.331Z,54.51
2023-05-14T04:42:45.592Z,54.75
2023-05-14T04:45:34.375Z,55.26
2023-05-14T04:48:25.365Z,55.66
2023-05-14T04:51:14.028Z,55.95
2023-05-14T04:54:02.581Z,56.00
2023-05-14T04:56:55.200Z,56.11
2023-05-14T04:59:44.250Z,56.15
2023-05-14T05:02:34.887Z,56.39
2023-05-14T05:05:31.156Z,56.40
2023-05-14T05:08:24.057Z,56.81
2023-05-14T05:11:16.452Z,56.59
2023-05-14T05:14:04.916Z,56.75
2023-05-14T05:16:52.753Z,55.33
2023-05-14T05:19:44.128Z,52.36
2023-05-14T05:22:33.306Z,48.75
2023-05-14T05:25:21.386Z,44.87
2023-05-14T05:28:09.658Z,40.84
2023-05-14T05:30:57.483Z,40.61
2023-05-14T05:33:45.798Z,36.12
2023-05-14T05:36:34.063Z,36.40
2023-05-14T05:39:22.081Z,31.93
2023-05-14T05:42:22.709Z,29.66
2023-05-14T05:45:11.479Z,29.42
2023-05-14T05:48:02.436Z,28.21
2023-05-14T05:50:51.576Z,23.94
2023-05-14T05:53:39.700Z,26.01
2023-05-14T05:56:28.494Z,24.40
2023-05-14T05:59:16.993Z,23.45
2023-05-14T06:02:06.984Z,23.02
2023-05-14T06:04:54.947Z,21.84
2023-05-14T06:07:43.212Z,21.87
2023-05-14T06:10:32.019Z,21.54
2023-05-14T06:13:20.700Z,20.71
2023-05-14T06:16:08.924Z,19.67
2023-05-14T06:18:56.947Z,19.30
2023-05-14T06:21:45.124Z,18.25
2023-05-14T06:24:33.132Z,18.80
2023-05-14T06:27:23.605Z,18.56
2023-05-14T06:30:12.793Z,18.16
2023-05-14T06:33:00.826Z,17.97
2023-05-14T06:35:49.353Z,17.46
2023-05-14T06:38:37.734Z,16.91
2023-05-14T06:41:26.319Z,16.41
2023-05-14T06:44:17.216Z,16.05
2023-05-14T06:47:08.858Z,16.55
2023-05-14T06:49:58.903Z,16.67
2023-05-14T06:52:47.698Z,16.13
2023-05-14T06:55:36.180Z,15.89
2023-05-14T06:58:24.466Z,15.99
2023-05-14T07:01:12.813Z,15.67
2023-05-14T07:04:03.032Z,15.14
2023-05-14T07:06:51.613Z,15.37
2023-05-14T07:09:42.231Z,15.67
2023-05-14T07:12:31.317Z,15.72
2023-05-14T07:15:20.202Z,15.83
2023-05-14T07:18:08.035Z,16.01
2023-05-14T07:20:57.145Z,15.78
2023-05-14T07:23:45.315Z,15.38
2023-05-14T07:26:33.764Z,15.24
2023-05-14T07:29:21.873Z,14.90
2023-05-14T07:32:09.967Z,14.64
2023-05-14T07:34:57.926Z,14.73
2023-05-14T07:37:46.816Z,14.67
2023-05-14T07:40:37.840Z,14.60
2023-05-14T07:43:27.150Z,14.61
2023-05-14T07:46:18.204Z,14.61
2023-05-14T07:49:05.960Z,14.70
2023-05-14T07:51:54.286Z,14.49
2023-05-14T07:54:44.664Z,14.12
2023-05-14T07:57:34.288Z,13.71
2023-05-14T08:00:22.726Z,14.08
2023-05-14T08:03:11.956Z,13.90
2023-05-14T08:06:00.177Z,13.89
2023-05-14T08:08:50.510Z,13.61
2023-05-14T08:11:39.352Z,13.49
2023-05-14T08:14:27.919Z,13.62
2023-05-14T08:17:16.973Z,13.57
2023-05-14T08:20:07.025Z,13.50
2023-05-14T08:22:58.752Z,13.23
2023-05-14T08:25:48.453Z,13.10
2023-05-14T08:28:36.622Z,13.47
2023-05-14T08:31:27.307Z,13.43
2023-05-14T08:34:16.628Z,13.36
2023-05-14T08:37:05.894Z,13.48
2023-05-14T08:39:54.711Z,13.60
2023-05-14T08:42:45.246Z,13.77
2023-05-14T08:45:38.967Z,13.89
2023-05-14T08:48:34.020Z,13.94
2023-05-14T08:51:22.500Z,14.03
2023-05-14T08:54:15.429Z,13.95
2023-05-14T08:57:05.099Z,13.99
2023-05-14T08:59:56.515Z,14.23
2023-05-14T09:02:46.723Z,14.42
2023-05-14T09:05:35.063Z,14.19
2023-05-14T09:08:23.862Z,14.22
2023-05-14T09:11:13.673Z,14.02
2023-05-14T09:14:01.801Z,13.48
2023-05-14T09:16:51.534Z,13.85
2023-05-14T09:19:41.572Z,13.77
2023-05-14T09:22:33.940Z,13.29
2023-05-14T09:25:28.422Z,13.22
2023-05-14T09:28:18.883Z,12.59
2023-05-14T09:31:07.344Z,13.28
2023-05-14T09:33:55.349Z,13.20
2023-05-14T09:36:43.672Z,13.95
2023-05-14T09:39:33.917Z,14.59
2023-05-14T09:42:21.701Z,14.33
2023-05-14T09:45:11.452Z,14.47
2023-05-14T09:48:01.490Z,14.49
2023-05-14T09:50:50.738Z,14.27
2023-05-14T09:53:41.599Z,14.17
2023-05-14T09:56:30.832Z,14.09
2023-05-14T09:59:19.214Z,14.65
2023-05-14T10:02:37.875Z,14.78
2023-05-14T10:05:37.489Z,14.42
2023-05-14T10:08:36.678Z,14.35
2023-05-14T10:11:31.177Z,14.24
2023-05-14T10:14:27.136Z,13.75
2023-05-14T10:17:18.626Z,14.07
2023-05-14T10:20:12.196Z,13.97
2023-05-14T10:23:03.867Z,13.61
2023-05-14T10:25:55.664Z,13.85
2023-05-14T10:28:50.022Z,14.07
2023-05-14T10:31:48.636Z,14.17
2023-05-14T10:34:38.978Z,14.97
2023-05-14T10:37:28.461Z,15.57
2023-05-14T10:40:18.695Z,15.67
2023-05-14T10:43:09.037Z,15.44
2023-05-14T10:45:58.967Z,16.06
2023-05-14T10:48:47.428Z,16.40
2023-05-14T10:51:36.955Z,16.40
2023-05-14T10:54:29.373Z,16.64
2023-05-14T10:57:23.216Z,16.57
2023-05-14T11:00:14.216Z,16.39
2023-05-14T11:03:06.090Z,16.14
2023-05-14T11:05:55.800Z,15.99
2023-05-14T11:08:46.612Z,16.13
2023-05-14T11:11:36.952Z,16.31
2023-05-14T11:14:25.201Z,16.37
2023-05-14T11:17:13.630Z,16.61
2023-05-14T11:20:02.106Z,16.90
2023-05-14T11:22:51.940Z,17.10
2023-05-14T11:25:42.079Z,17.41
2023-05-14T11:28:31.372Z,17.49
2023-05-14T11:31:23.465Z,17.84
2023-05-14T11:34:13.676Z,18.47
2023-05-14T11:37:07.621Z,18.73
2023-05-14T11:40:00.803Z,19.03
2023-05-14T11:42:53.871Z,19.37
2023-05-14T11:45:43.031Z,19.72
2023-05-14T11:48:34.632Z,20.29
2023-05-14T11:51:23.535Z,21.05
2023-05-14T11:54:14.464Z,21.72
2023-05-14T11:57:09.012Z,22.55
2023-05-14T11:59:58.064Z,23.27
2023-05-14T12:02:50.195Z,23.71
2023-05-14T12:05:40.497Z,23.89
2023-05-14T12:08:33.256Z,24.10
2023-05-14T12:11:23.138Z,24.13
2023-05-14T12:14:16.328Z,24.27
2023-05-14T12:17:09.965Z,24.00
2023-05-14T12:19:57.991Z,24.15
2023-05-14T12:22:46.299Z,24.32
2023-05-14T12:25:41.778Z,24.66
2023-05-14T12:28:36.948Z,25.20
2023-05-14T12:31:35.070Z,25.39
2023-05-14T12:34:23.100Z,25.43
2023-05-14T12:37:12.032Z,25.14
2023-05-14T12:40:00.566Z,24.89
2023-05-14T12:42:49.122Z,24.90
2023-05-14T12:45:37.333Z,25.02
2023-05-14T12:48:26.269Z,25.32
2023-05-14T12:51:15.781Z,25.55
2023-05-14T12:54:05.046Z,25.98
2023-05-14T12:56:53.068Z,25.93
2023-05-14T12:59:41.704Z,25.88
2023-05-14T13:02:30.771Z,25.56
2023-05-14T13:05:19.142Z,25.35
2023-05-14T13:08:08.325Z,25.18
2023-05-14T13:10:57.853Z,25.44
2023-05-14T13:13:46.104Z,25.60
2023-05-14T13:16:34.588Z,26.01
2023-05-14T13:19:24.850Z,26.16
2023-05-14T13:22:18.958Z,26.27
2023-05-14T13:25:08.802Z,26.61
2023-05-14T13:27:59.451Z,26.84
2023-05-14T13:31:08.003Z,27.14
2023-05-14T13:33:58.362Z,27.14
2023-05-14T13:36:47.340Z,26.99
2023-05-14T13:39:35.638Z,27.05
2023-05-14T13:42:24.108Z,27.04
2023-05-14T13:45:13.362Z,27.36
2023-05-14T13:48:01.639Z,27.86
2023-05-14T13:50:50.591Z,28.90
2023-05-14T13:53:38.868Z,30.39
2023-05-14T13:56:27.926Z,31.31
2023-05-14T13:59:16.760Z,31.82
2023-05-14T14:02:05.599Z,31.64
2023-05-14T14:04:53.796Z,31.71
2023-05-14T14:07:42.323Z,31.42
2023-05-14T14:10:31.083Z,31.63
2023-05-14T14:13:21.377Z,31.48
2023-05-14T14:16:12.714Z,31.48
2023-05-14T14:19:01.694Z,31.52
2023-05-14T14:24:38.981Z,31.19
2023-05-14T14:27:28.457Z,31.12
2023-05-14T14:30:16.132Z,30.87
2023-05-14T14:33:04.672Z,30.87
2023-05-14T14:35:53.990Z,30.92
2023-05-14T14:38:42.804Z,31.07
2023-05-14T14:41:31.130Z,31.21
2023-05-14T14:44:22.480Z,31.25
2023-05-14T14:47:10.723Z,31.21
2023-05-14T14:49:59.152Z,31.18
2023-05-14T14:52:48.256Z,31.21
2023-05-14T14:55:37.195Z,31.36
2023-05-14T14:58:25.550Z,31.60
2023-05-14T15:01:14.917Z,31.73
2023-05-14T15:04:04.003Z,31.99
2023-05-14T15:06:52.478Z,32.38
2023-05-14T15:09:42.511Z,32.66
2023-05-14T15:12:31.041Z,33.00
2023-05-14T15:15:19.638Z,33.20
2023-05-14T15:18:08.099Z,33.53
2023-05-14T15:20:57.179Z,33.61
2023-05-14T15:23:47.748Z,33.75
2023-05-14T15:26:35.994Z,33.92
2023-05-14T15:29:27.155Z,34.22
2023-05-14T15:32:15.792Z,34.59
2023-05-14T15:35:05.148Z,35.11
2023-05-14T15:37:59.748Z,35.48
2023-05-14T15:40:50.984Z,35.42
2023-05-14T15:43:42.698Z,35.49
2023-05-14T15:46:33.121Z,35.29
2023-05-14T15:49:21.707Z,35.34
2023-05-14T15:52:13.684Z,34.97
2023-05-14T15:55:01.599Z,35.06
2023-05-14T15:57:50.569Z,35.25
2023-05-14T16:00:41.212Z,35.24
2023-05-14T16:03:33.652Z,35.38
2023-05-14T16:06:25.573Z,35.27
2023-05-14T16:09:13.349Z,35.35
2023-05-14T16:12:03.121Z,35.45
2023-05-14T16:14:52.299Z,35.41
2023-05-14T16:17:42.678Z,35.62
2023-05-14T16:20:31.234Z,35.60
2023-05-14T16:23:21.279Z,35.49
2023-05-14T16:26:09.307Z,35.57
2023-05-14T16:28:58.472Z,35.41
2023-05-14T16:31:52.232Z,35.70
2023-05-14T16:34:42.086Z,35.89
2023-05-14T16:37:32.116Z,35.93
2023-05-14T16:40:22.355Z,36.07
2023-05-14T16:43:11.572Z,36.09
2023-05-14T16:46:02.366Z,36.10
2023-05-14T16:48:52.671Z,36.51
2023-05-14T16:51:44.362Z,36.73
2023-05-14T16:54:34.734Z,36.87
2023-05-14T16:57:25.718Z,36.86
2023-05-14T17:00:15.949Z,36.95
2023-05-14T17:03:04.901Z,36.94
2023-05-14T17:05:53.951Z,37.08
2023-05-14T17:08:42.062Z,37.30
2023-05-14T17:11:30.230Z,37.50
2023-05-14T17:14:18.658Z,37.68
2023-05-14T17:17:07.523Z,37.67
2023-05-14T17:19:56.766Z,37.90
2023-05-14T17:22:45.223Z,38.10
2023-05-14T17:25:33.768Z,38.22
2023-05-14T17:28:27.089Z,38.30
2023-05-14T17:31:18.755Z,38.16
2023-05-14T17:34:07.635Z,38.17
2023-05-14T17:36:56.223Z,38.42
2023-05-14T17:39:44.342Z,38.35
2023-05-14T17:42:32.590Z,38.32
2023-05-14T17:45:21.586Z,38.25
2023-05-14T17:48:12.503Z,38.39
2023-05-14T17:51:01.004Z,38.40
2023-05-14T17:53:49.666Z,38.34
2023-05-14T17:56:38.037Z,38.59
2023-05-14T17:59:26.620Z,38.71
2023-05-14T18:02:16.702Z,38.92
2023-05-14T18:05:05.604Z,38.99
2023-05-14T18:07:55.291Z,39.02
2023-05-14T18:10:44.119Z,39.19
2023-05-14T18:13:35.098Z,39.34
2023-05-14T18:16:24.131Z,39.45
2023-05-14T18:19:15.197Z,39.83
2023-05-14T18:22:03.656Z,40.01
2023-05-14T18:24:52.865Z,40.28
2023-05-14T18:27:44.633Z,40.65
2023-05-14T18:30:33.423Z,40.82
2023-05-14T18:33:24.138Z,40.91
2023-05-14T18:36:13.457Z,41.04
2023-05-14T18:39:05.795Z,41.37
2023-05-14T18:41:56.683Z,41.69
2023-05-14T18:44:44.868Z,42.25
2023-05-14T18:47:34.749Z,42.61
2023-05-14T18:50:27.132Z,43.14
2023-05-14T18:53:15.347Z,43.08
2023-05-14T18:56:05.200Z,43.77
2023-05-14T18:58:55.051Z,44.90
2023-05-14T19:01:43.581Z,44.61
2023-05-14T19:04:33.552Z,44.35
2023-05-14T19:07:27.950Z,46.03
2023-05-14T19:10:18.953Z,45.99
2023-05-14T19:13:07.087Z,46.04
2023-05-14T19:15:56.103Z,45.92
2023-05-14T19:18:44.113Z,45.78
2023-05-14T19:21:32.873Z,47.47
2023-05-14T19:24:20.680Z,48.49
2023-05-14T19:27:19.414Z,47.75
2023-05-14T19:30:09.425Z,47.13
2023-05-14T19:33:04.595Z,48.36
2023-05-14T19:35:56.281Z,48.22
2023-05-14T19:38:44.830Z,48.85
2023-05-14T19:41:34.979Z,49.37
2023-05-14T19:44:24.480Z,48.95
2023-05-14T19:47:14.137Z,49.58
2023-05-14T19:50:04.404Z,50.17
2023-05-14T19:52:52.688Z,50.09
2023-05-14T19:55:44.338Z,49.71
2023-05-14T19:58:34.847Z,50.43
2023-05-14T20:01:23.025Z,50.13
2023-05-14T20:04:11.561Z,50.18
2023-05-14T20:07:01.303Z,50.33
2023-05-14T20:09:49.561Z,50.95
2023-05-14T20:12:37.997Z,50.54
2023-05-14T20:15:26.857Z,50.73
2023-05-14T20:18:15.283Z,50.96
2023-05-14T20:21:05.712Z,51.72
2023-05-14T20:23:54.182Z,51.01
2023-05-14T20:26:44.104Z,51.63
2023-05-14T20:29:35.073Z,51.98
2023-05-14T20:32:25.167Z,52.47
2023-05-14T20:35:14.747Z,53.45
2023-05-14T20:38:04.563Z,53.51
2023-05-14T20:40:54.058Z,53.95
2023-05-14T20:43:44.582Z,54.44
2023-05-14T20:46:33.169Z,54.13
2023-05-14T20:49:21.389Z,54.23
2023-05-14T20:52:10.315Z,54.85
2023-05-14T20:55:00.755Z,54.09
2023-05-14T20:57:49.932Z,54.18
2023-05-14T21:00:39.317Z,54.87
2023-05-14T21:03:27.555Z,55.90
2023-05-14T21:06:16.420Z,56.07
2023-05-14T21:09:04.622Z,55.54
2023-05-14T21:11:54.143Z,55.94
2023-05-14T21:14:43.365Z,56.03
2023-05-14T21:17:34.652Z,56.83
2023-05-14T21:20:25.072Z,57.28
2023-05-14T21:23:14.816Z,57.26
2023-05-14T21:26:03.432Z,57.67
2023-05-14T21:28:53.459Z,58.10
2023-05-14T21:31:41.386Z,58.37
2023-05-14T21:34:31.234Z,58.82
2023-05-14T21:37:21.945Z,59.00
2023-05-14T21:40:12.585Z,58.73
2023-05-14T21:43:06.153Z,59.25
2023-05-14T21:45:54.508Z,59.24
2023-05-14T21:48:42.604Z,59.93
2023-05-14T21:51:32.354Z,60.05
2023-05-14T21:54:21.173Z,59.98
2023-05-14T21:57:09.519Z,59.77
2023-05-14T21:59:58.289Z,59.77
2023-05-14T22:02:47.235Z,60.04
2023-05-14T22:05:36.963Z,60.16
2023-05-14T22:08:24.948Z,60.75
2023-05-14T22:11:13.781Z,60.52
2023-05-14T22:14:04.407Z,60.62
2023-05-14T22:16:55.286Z,60.57
2023-05-14T22:19:43.781Z,60.38
2023-05-14T22:22:32.379Z,60.28
2023-05-14T22:25:20.351Z,59.69
2023-05-14T22:28:08.406Z,59.82
2023-05-14T22:30:59.873Z,59.98
2023-05-14T22:33:47.689Z,60.92
2023-05-14T22:36:35.794Z,61.04
2023-05-14T22:39:24.005Z,60.95
2023-05-14T22:42:12.242Z,60.75
2023-05-14T22:45:00.297Z,61.31
2023-05-14T22:47:49.207Z,61.64
2023-05-14T22:50:37.346Z,61.29
2023-05-14T22:53:25.676Z,61.75
2023-05-14T22:56:15.541Z,61.43
2023-05-14T22:59:04.307Z,61.94
2023-05-14T23:01:52.174Z,61.99
2023-05-14T23:04:40.625Z,65.86
2023-05-14T23:07:28.784Z,68.66
2023-05-14T23:10:17.992Z,65.21
2023-05-14T23:13:06.851Z,61.72
2023-05-14T23:15:55.881Z,57.33
2023-05-14T23:18:45.086Z,55.28
2023-05-14T23:21:33.390Z,55.94
2023-05-14T23:24:22.405Z,56.38
2023-05-14T23:27:11.818Z,57.17
2023-05-14T23:29:59.924Z,58.16
2023-05-14T23:32:49.810Z,58.90
2023-05-14T23:35:39.876Z,59.21
2023-05-14T23:38:27.647Z,59.94
2023-05-14T23:41:15.814Z,59.60
2023-05-14T23:44:04.032Z,60.48
2023-05-14T23:46:53.721Z,61.30
2023-05-14T23:49:41.969Z,61.47
2023-05-14T23:52:30.066Z,65.07
2023-05-14T23:55:19.232Z,67.99
2023-05-14T23:58:07.633Z,65.54
